METAR Data

Data at: 2334 UTC 26 Feb 2020

METAR for:CYHZ (Halifax/Stanfield In, NS, CN)
Text:CYHZ 262300Z 06006KT 15SM BKN020 OVC120 04/M03 A3007 RMK SC5AC3 SLP190
Temperature: 4.0°C ( 39°F)
Dewpoint: -3.0°C ( 27°F) [RH = 60%]
Pressure (altimeter):30.07 inches Hg (1018.4 mb) [Sea level pressure: 1019.0 mb]
Winds:from the ENE (60 degrees) at 7 MPH (6 knots; 3.1 m/s)
Visibility: 15 sm ( 24 km)
Ceiling:2000 feet AGL
Clouds: broken clouds at 2000 feet AGL, overcast cloud deck at 12000 feet AGL